CheckWX is a tool to help pilots better visualize weather data.  It is not intended as a substitute for an official pre-flight weather briefing.

04:10:32 UTC

KAXA METAR
Algona Municipal Airport
Algona, Iowa, USA
Current

16 mins ago

KAXA 250355Z AUTO 17011KT 10SM CLR 16/09 A2973 RMK AO2 PWINO
Observed
Apr-25 @ 03:55 UTC
Wind
  • 170° at 11 KTS
Visibility
10 SM
Flight Rules
VFR
Cloud Levels
  • Clear skies
Temperature
16°C / 61°F
Dewpoint
C / 48°F
Humidity
63%
Altimeter
29.73" Hg
Pressure
1006.82 hPa
Previous

36 mins ago

KAXA 250335Z AUTO 17010KT 10SM CLR 16/08 A2974 RMK AO2 PWINO
Observed
Apr-25 @ 03:35 UTC
Wind
  • 170° at 10 KTS
Visibility
10 SM
Flight Rules
VFR
Cloud Levels
  • Clear skies
Temperature
16°C / 61°F
Dewpoint
C / 46°F
Humidity
59%
Altimeter
29.74" Hg
Pressure
1007.12 hPa
Previous

56 mins ago

KAXA 250315Z AUTO 17013KT FEW042 16/05 A2974 RMK AO2 PWINO
Observed
Apr-25 @ 03:15 UTC
Wind
  • 170° at 13 KTS
Visibility
Cloud Levels
  • Few at 4,200' AGL
Temperature
16°C / 61°F
Dewpoint
C / 41°F
Humidity
48%
Altimeter
29.74" Hg
Pressure
1007.12 hPa